createdAt,value
2018-07-08T00:00:50.024Z,8.0
2018-07-08T00:02:50.216Z,9.0
2018-07-08T00:04:49.705Z,9.0
2018-07-08T00:06:50.034Z,7.1
2018-07-08T00:08:50.119Z,6.7
2018-07-08T00:10:50.246Z,7.2
2018-07-08T00:12:50.405Z,7.1
2018-07-08T00:14:49.608Z,7.1
2018-07-08T00:16:49.842Z,7.3
2018-07-08T00:18:49.985Z,7.3
2018-07-08T00:20:50.205Z,7.0
2018-07-08T00:22:50.315Z,6.4
2018-07-08T00:24:49.536Z,6.4
2018-07-08T00:26:49.921Z,7.1
2018-07-08T00:28:50.084Z,7.6
2018-07-08T00:30:50.341Z,9.2
2018-07-08T00:32:49.581Z,6.3
2018-07-08T00:34:49.985Z,6.3
2018-07-08T00:36:50.388Z,10.3
2018-07-08T00:38:49.530Z,18.6
2018-07-08T00:40:49.737Z,7.1
2018-07-08T00:42:50.062Z,6.6
2018-07-08T00:44:50.160Z,6.6
2018-07-08T00:46:49.693Z,6.6
2018-07-08T00:48:49.839Z,7.2
2018-07-08T00:50:49.951Z,7.2
2018-07-08T00:52:50.100Z,7.7
2018-07-08T00:54:50.225Z,8.5
2018-07-08T00:56:49.585Z,8.5
2018-07-08T00:58:49.687Z,6.6
2018-07-08T01:00:49.956Z,6.6
2018-07-08T01:02:50.119Z,7.1
2018-07-08T01:04:49.555Z,7.3
2018-07-08T01:06:49.726Z,7.3
2018-07-08T01:08:50.068Z,6.6
2018-07-08T01:10:49.990Z,6.8
2018-07-08T01:12:50.180Z,6.5
2018-07-08T01:14:50.293Z,6.5
2018-07-08T01:16:49.564Z,6.4
2018-07-08T01:18:49.662Z,6.6
2018-07-08T01:20:49.840Z,8.3
2018-07-08T01:22:50.045Z,7.2
2018-07-08T01:24:50.237Z,7.2
2018-07-08T01:26:49.601Z,6.9
2018-07-08T01:28:49.731Z,6.7
2018-07-08T01:30:49.906Z,6.4
2018-07-08T01:32:50.154Z,6.4
2018-07-08T01:34:49.804Z,7.3
2018-07-08T01:36:50.252Z,7.3
2018-07-08T01:38:50.373Z,7.2
2018-07-08T01:40:49.640Z,6.7
2018-07-08T01:42:49.973Z,6.7
2018-07-08T01:44:50.142Z,8.1
2018-07-08T01:46:49.473Z,6.7
2018-07-08T01:48:49.650Z,6.6
2018-07-08T01:50:49.892Z,7.1
2018-07-08T01:52:50.139Z,7.1
2018-07-08T01:54:50.310Z,6.9
2018-07-08T01:56:49.770Z,7.4
2018-07-08T01:58:49.882Z,7.1
2018-07-08T02:00:50.119Z,6.9
2018-07-08T02:02:50.285Z,6.9
2018-07-08T02:04:49.601Z,8.3
2018-07-08T02:06:50.053Z,7.0
2018-07-08T02:08:50.427Z,6.8
2018-07-08T02:10:49.669Z,6.8
2018-07-08T02:12:49.761Z,6.8
2018-07-08T02:14:49.976Z,7.0
2018-07-08T02:16:50.400Z,6.7
2018-07-08T02:18:49.754Z,6.7
2018-07-08T02:20:50.015Z,6.7
2018-07-08T02:22:50.175Z,7.2
2018-07-08T02:24:50.311Z,7.0
2018-07-08T02:26:49.846Z,7.0
2018-07-08T02:28:49.953Z,6.8
2018-07-08T02:30:50.109Z,6.8
2018-07-08T02:32:50.305Z,6.7
2018-07-08T02:34:49.852Z,7.1
2018-07-08T02:36:50.322Z,6.9
2018-07-08T02:38:49.479Z,7.4
2018-07-08T02:40:49.707Z,7.4
2018-07-08T02:42:50.033Z,6.8
2018-07-08T02:44:50.177Z,7.4
2018-07-08T02:46:49.613Z,6.7
2018-07-08T02:48:49.790Z,8.2
2018-07-08T02:50:49.971Z,8.2
2018-07-08T02:52:50.140Z,7.2
2018-07-08T02:54:50.270Z,7.2
2018-07-08T02:56:49.626Z,8.0
2018-07-08T02:58:49.785Z,6.8
2018-07-08T03:00:49.942Z,6.8
2018-07-08T03:02:50.046Z,8.2
2018-07-08T03:04:49.546Z,7.2
2018-07-08T03:06:49.863Z,7.6
2018-07-08T03:08:49.987Z,6.4
2018-07-08T03:10:50.155Z,6.4
2018-07-08T03:12:50.325Z,7.5
2018-07-08T03:14:49.546Z,6.4
2018-07-08T03:16:49.758Z,6.4
2018-07-08T03:18:50.249Z,6.7
2018-07-08T03:20:50.392Z,6.1
2018-07-08T03:22:49.703Z,8.5
2018-07-08T03:24:49.871Z,6.4
2018-07-08T03:26:50.229Z,6.4
2018-07-08T03:28:49.477Z,6.5
2018-07-08T03:30:49.612Z,6.6
2018-07-08T03:32:49.812Z,7.1
2018-07-08T03:34:50.097Z,7.3
2018-07-08T03:36:50.390Z,7.3
2018-07-08T03:38:49.539Z,7.0
2018-07-08T03:40:49.659Z,7.0
2018-07-08T03:42:50.019Z,7.0
2018-07-08T03:44:50.123Z,7.1
2018-07-08T03:46:49.434Z,7.1
2018-07-08T03:48:49.627Z,6.8
2018-07-08T03:50:49.760Z,6.8
2018-07-08T03:52:49.980Z,6.8
2018-07-08T03:54:50.193Z,6.8
2018-07-08T03:56:49.571Z,6.8
2018-07-08T03:58:49.805Z,6.7
2018-07-08T04:00:49.932Z,7.0
2018-07-08T04:02:50.050Z,7.2
2018-07-08T04:04:49.558Z,7.5
2018-07-08T04:06:50.152Z,7.5
2018-07-08T04:08:50.363Z,15.4
2018-07-08T04:10:49.513Z,11.6
2018-07-08T04:12:49.726Z,11.6
2018-07-08T04:14:49.927Z,9.8
2018-07-08T04:16:50.238Z,9.8
2018-07-08T04:18:49.466Z,7.0
2018-07-08T04:20:49.581Z,6.9
2018-07-08T04:22:49.750Z,7.1
2018-07-08T04:24:50.007Z,6.8
2018-07-08T04:26:50.278Z,6.8
2018-07-08T04:28:49.589Z,6.6
2018-07-08T04:30:49.686Z,6.7
2018-07-08T04:32:49.777Z,7.4
2018-07-08T04:34:50.310Z,7.4
2018-07-08T04:36:49.612Z,7.0
2018-07-08T04:38:49.770Z,6.4
2018-07-08T04:40:49.938Z,7.1
2018-07-08T04:42:50.061Z,6.8
2018-07-08T04:44:50.166Z,6.8
2018-07-08T04:46:49.519Z,7.5
2018-07-08T04:48:49.657Z,6.3
2018-07-08T04:50:49.921Z,6.3
2018-07-08T04:52:50.175Z,6.5
2018-07-08T04:54:49.478Z,6.5
2018-07-08T04:56:49.863Z,6.7
2018-07-08T04:58:49.929Z,6.6
2018-07-08T05:00:50.089Z,6.5
2018-07-08T05:02:49.615Z,6.7
2018-07-08T05:04:50.079Z,6.7
2018-07-08T05:06:50.390Z,7.1
2018-07-08T05:08:49.501Z,7.1
2018-07-08T05:10:49.726Z,7.1
2018-07-08T05:12:49.916Z,7.0
2018-07-08T05:14:50.079Z,6.5
2018-07-08T05:16:50.320Z,6.0
2018-07-08T05:18:50.426Z,6.0
2018-07-08T05:20:49.621Z,7.2
2018-07-08T05:22:49.790Z,6.5
2018-07-08T05:24:49.905Z,6.5
2018-07-08T05:26:50.303Z,6.0
2018-07-08T05:28:49.453Z,7.7
2018-07-08T05:30:49.712Z,7.1
2018-07-08T05:32:49.900Z,6.4
2018-07-08T05:34:50.448Z,6.4
2018-07-08T05:36:50.370Z,6.9
2018-07-08T05:38:49.594Z,6.9
2018-07-08T05:40:49.749Z,5.6
2018-07-08T05:42:49.881Z,5.6
2018-07-08T05:44:50.023Z,7.6
2018-07-08T05:46:50.339Z,7.6
2018-07-08T05:48:49.569Z,5.1
2018-07-08T05:50:49.911Z,5.7
2018-07-08T05:52:50.074Z,5.7
2018-07-08T05:54:49.452Z,5.7
2018-07-08T05:56:49.996Z,6.1
2018-07-08T05:58:50.146Z,5.3
2018-07-08T06:00:50.371Z,5.3
2018-07-08T06:02:49.546Z,6.4
2018-07-08T06:04:49.993Z,6.5
2018-07-08T06:06:50.420Z,6.0
2018-07-08T06:08:49.694Z,6.1
2018-07-08T06:10:49.974Z,5.4
2018-07-08T06:12:50.160Z,5.4
2018-07-08T06:14:50.318Z,5.2
2018-07-08T06:16:49.659Z,5.7
2018-07-08T06:18:50.142Z,5.7
2018-07-08T06:20:49.464Z,6.4
2018-07-08T06:22:49.777Z,6.4
2018-07-08T06:24:50.059Z,5.0
2018-07-08T06:26:49.492Z,7.0
2018-07-08T06:28:49.644Z,5.7
2018-07-08T06:30:49.814Z,5.7
2018-07-08T06:32:49.976Z,5.7
2018-07-08T06:34:50.379Z,5.5
2018-07-08T06:36:49.800Z,4.9
2018-07-08T06:38:50.005Z,4.9
2018-07-08T06:40:50.228Z,5.8
2018-07-08T06:42:50.360Z,4.5
2018-07-08T06:44:49.707Z,5.7
2018-07-08T06:46:50.049Z,5.7
2018-07-08T06:48:50.212Z,4.9
2018-07-08T06:50:50.420Z,4.9
2018-07-08T06:52:49.805Z,5.4
2018-07-08T06:54:50.003Z,5.8
2018-07-08T06:56:50.344Z,6.6
2018-07-08T06:58:49.528Z,6.6
2018-07-08T07:00:49.754Z,6.4
2018-07-08T07:02:50.012Z,6.7
2018-07-08T07:04:49.462Z,6.3
2018-07-08T07:06:49.921Z,6.3
2018-07-08T07:08:49.820Z,4.2
2018-07-08T07:10:50.041Z,4.2
2018-07-08T07:12:50.213Z,4.0
2018-07-08T07:14:50.343Z,6.6
2018-07-08T07:16:49.696Z,4.1
2018-07-08T07:18:49.807Z,4.1
2018-07-08T07:20:50.027Z,6.0
2018-07-08T07:22:50.195Z,5.4
2018-07-08T07:24:50.378Z,6.6
2018-07-08T07:26:49.649Z,6.2
2018-07-08T07:28:49.819Z,6.2
2018-07-08T07:30:50.026Z,5.1
2018-07-08T07:32:50.241Z,6.4
2018-07-08T07:34:49.816Z,6.4
2018-07-08T07:36:50.118Z,5.8
2018-07-08T07:38:50.281Z,4.0
2018-07-08T07:40:49.465Z,4.6
2018-07-08T07:42:49.627Z,4.1
2018-07-08T07:44:49.807Z,5.2
2018-07-08T07:46:50.124Z,4.2
2018-07-08T07:48:50.224Z,4.2
2018-07-08T07:50:50.346Z,4.7
2018-07-08T07:52:49.621Z,5.5
2018-07-08T07:54:49.787Z,5.1
2018-07-08T07:56:50.100Z,5.7
2018-07-08T07:58:50.277Z,5.7
2018-07-08T08:00:49.581Z,4.6
2018-07-08T08:02:49.780Z,4.6
2018-07-08T08:04:50.206Z,4.3
2018-07-08T08:06:49.566Z,4.3
2018-07-08T08:08:49.691Z,4.1
2018-07-08T08:10:49.891Z,5.9
2018-07-08T08:12:49.845Z,6.8
2018-07-08T08:14:50.000Z,4.1
2018-07-08T08:16:50.343Z,4.1
2018-07-08T08:18:49.521Z,5.1
2018-07-08T08:20:49.648Z,5.8
2018-07-08T08:22:49.749Z,3.9
2018-07-08T08:24:50.036Z,3.9
2018-07-08T08:26:50.514Z,4.4
2018-07-08T08:28:50.299Z,4.8
2018-07-08T08:30:49.512Z,3.4
2018-07-08T08:32:49.780Z,3.4
2018-07-08T08:34:50.248Z,6.9
2018-07-08T08:36:49.519Z,4.1
2018-07-08T08:38:49.753Z,2.5
2018-07-08T08:40:49.871Z,3.3
2018-07-08T08:42:50.130Z,4.2
2018-07-08T08:44:50.354Z,2.1
2018-07-08T08:46:49.753Z,2.1
2018-07-08T08:48:49.890Z,2.4
2018-07-08T08:50:50.070Z,3.1
2018-07-08T08:52:49.517Z,5.1
2018-07-08T08:54:49.729Z,5.1
2018-07-08T08:56:50.107Z,3.1
2018-07-08T08:58:50.349Z,5.3
2018-07-08T09:00:49.524Z,3.5
2018-07-08T09:02:49.761Z,3.6
2018-07-08T09:04:50.285Z,3.6
2018-07-08T09:06:49.713Z,2.7
2018-07-08T09:08:49.829Z,5.0
2018-07-08T09:10:50.023Z,3.9
2018-07-08T09:12:49.775Z,2.9
2018-07-08T09:14:49.903Z,2.9
2018-07-08T09:16:50.256Z,4.2
2018-07-08T09:18:49.550Z,4.4
2018-07-08T09:20:49.731Z,4.8
2018-07-08T09:22:49.899Z,5.3
2018-07-08T09:24:50.032Z,5.3
2018-07-08T09:26:50.392Z,5.5
2018-07-08T09:28:49.569Z,3.1
2018-07-08T09:30:49.859Z,4.5
2018-07-08T09:32:50.295Z,4.5
2018-07-08T09:34:49.666Z,1.2
2018-07-08T09:36:49.973Z,1.4
2018-07-08T09:38:50.150Z,2.3
2018-07-08T09:40:49.495Z,3.2
2018-07-08T09:42:49.665Z,3.2
2018-07-08T09:44:49.820Z,1.4
2018-07-08T09:46:50.197Z,1.7
2018-07-08T09:48:49.444Z,1.9
2018-07-08T09:50:49.762Z,1.2
2018-07-08T09:52:49.894Z,1.2
2018-07-08T09:54:50.066Z,3.3
2018-07-08T09:56:50.370Z,1.5
2018-07-08T09:58:49.557Z,1.5
2018-07-08T10:00:49.661Z,1.8
2018-07-08T10:02:49.880Z,1.8
2018-07-08T10:04:50.354Z,2.6
2018-07-08T10:06:50.248Z,1.4
2018-07-08T10:08:50.381Z,2.1
2018-07-08T10:10:49.586Z,9.1
2018-07-08T10:12:50.280Z,9.1
2018-07-08T10:14:49.546Z,1.7
2018-07-08T10:16:50.048Z,1.5
2018-07-08T10:18:50.222Z,2.7
2018-07-08T10:20:49.921Z,2.7
2018-07-08T10:22:50.152Z,3.2
2018-07-08T10:24:49.955Z,1.2
2018-07-08T10:26:49.945Z,2.7
2018-07-08T10:28:50.197Z,1.7
2018-07-08T10:30:49.555Z,1.7
2018-07-08T10:32:49.786Z,1.8
2018-07-08T10:34:50.120Z,2.2
2018-07-08T10:36:49.484Z,1.4
2018-07-08T10:38:49.757Z,1.4
2018-07-08T10:40:49.970Z,1.3
2018-07-08T10:42:50.164Z,1.4
2018-07-08T10:44:50.279Z,1.3
2018-07-08T10:46:49.638Z,2.1
2018-07-08T10:48:49.712Z,2.8
2018-07-08T10:50:49.976Z,2.8
2018-07-08T10:52:50.159Z,1.2
2018-07-08T10:54:50.328Z,1.8
2018-07-08T10:56:49.681Z,1.4
2018-07-08T10:58:49.787Z,1.4
2018-07-08T11:00:49.985Z,1.3
2018-07-08T11:02:50.166Z,1.2
2018-07-08T11:04:49.508Z,1.0
2018-07-08T11:06:49.860Z,1.0
2018-07-08T11:08:50.031Z,1.6
2018-07-08T11:10:50.278Z,1.6
2018-07-08T11:12:49.908Z,1.2
2018-07-08T11:14:50.102Z,1.2
2018-07-08T11:16:50.383Z,1.5
2018-07-08T11:18:49.569Z,1.5
2018-07-08T11:20:49.676Z,1.1
2018-07-08T11:22:50.260Z,1.0
2018-07-08T11:24:49.574Z,1.0
2018-07-08T11:26:49.871Z,1.7
2018-07-08T11:28:50.178Z,1.7
2018-07-08T11:30:50.294Z,1.9
2018-07-08T11:32:49.653Z,1.1
2018-07-08T11:34:50.034Z,3.7
2018-07-08T11:36:50.269Z,1.9
2018-07-08T11:38:49.542Z,1.9
2018-07-08T11:40:49.682Z,1.9
2018-07-08T11:42:49.793Z,1.2
2018-07-08T11:44:50.302Z,1.2
2018-07-08T11:46:49.704Z,2.2
2018-07-08T11:48:49.824Z,2.2
2018-07-08T11:50:49.953Z,1.1
2018-07-08T11:52:50.159Z,1.0
2018-07-08T11:54:50.327Z,1.5
2018-07-08T11:56:49.647Z,1.5
2018-07-08T11:58:49.838Z,1.1
2018-07-08T12:00:49.969Z,4.1
2018-07-08T12:02:50.108Z,1.6
2018-07-08T12:04:49.698Z,1.0
2018-07-08T12:06:49.952Z,2.6
2018-07-08T12:08:50.244Z,2.6
2018-07-08T12:10:49.669Z,1.2
2018-07-08T12:12:49.861Z,1.0
2018-07-08T12:14:49.976Z,0.9
2018-07-08T12:16:50.267Z,1.5
2018-07-08T12:18:50.382Z,1.5
2018-07-08T12:20:49.635Z,1.2
2018-07-08T12:22:49.747Z,1.5
2018-07-08T12:24:49.835Z,1.2
2018-07-08T12:26:50.086Z,1.2
2018-07-08T12:28:50.169Z,1.2
2018-07-08T12:30:50.382Z,1.2
2018-07-08T12:32:49.539Z,1.2
2018-07-08T12:34:49.815Z,1.1
2018-07-08T12:36:50.151Z,1.1
2018-07-08T12:38:49.782Z,1.3
2018-07-08T12:40:49.991Z,1.3
2018-07-08T12:42:50.083Z,1.9
2018-07-08T12:44:50.226Z,1.9
2018-07-08T12:46:49.479Z,1.3
2018-07-08T12:48:49.578Z,1.5
2018-07-08T12:50:49.746Z,1.1
2018-07-08T12:52:49.887Z,1.4
2018-07-08T12:54:49.925Z,1.4
2018-07-08T12:56:50.223Z,3.4
2018-07-08T12:58:50.278Z,2.2
2018-07-08T13:00:49.730Z,1.4
2018-07-08T13:02:49.817Z,1.7
2018-07-08T13:04:50.241Z,1.7
2018-07-08T13:06:49.595Z,1.0
2018-07-08T13:08:49.740Z,1.6
2018-07-08T13:10:50.087Z,1.4
2018-07-08T13:12:50.221Z,1.4
2018-07-08T13:14:50.327Z,1.7
2018-07-08T13:16:49.662Z,3.6
2018-07-08T13:18:49.923Z,2.0
2018-07-08T13:20:50.073Z,2.0
2018-07-08T13:22:50.327Z,1.8
2018-07-08T13:24:49.543Z,1.8
2018-07-08T13:26:49.858Z,1.6
2018-07-08T13:28:49.974Z,1.3
2018-07-08T13:30:50.127Z,2.8
2018-07-08T13:32:50.216Z,1.6
2018-07-08T13:34:49.669Z,1.6
2018-07-08T13:36:50.063Z,1.2
2018-07-08T13:38:50.211Z,1.5
2018-07-08T13:40:49.884Z,1.7
2018-07-08T13:42:50.074Z,10.9
2018-07-08T13:44:50.256Z,10.9
2018-07-08T13:46:49.557Z,1.4
2018-07-08T13:48:49.625Z,1.8
2018-07-08T13:50:49.780Z,1.2
2018-07-08T13:52:50.086Z,1.4
2018-07-08T13:54:50.195Z,1.4
2018-07-08T13:56:49.496Z,1.5
2018-07-08T13:58:49.608Z,1.5
2018-07-08T14:00:49.798Z,1.6
2018-07-08T14:02:49.982Z,1.6
2018-07-08T14:04:50.239Z,3.7
2018-07-08T14:06:49.564Z,1.5
2018-07-08T14:08:49.675Z,1.5
2018-07-08T14:10:50.006Z,1.5
2018-07-08T14:12:50.346Z,1.5
2018-07-08T14:14:49.552Z,2.7
2018-07-08T14:16:50.145Z,3.2
2018-07-08T14:18:50.230Z,1.5
2018-07-08T14:20:50.464Z,1.4
2018-07-08T14:22:49.621Z,1.4
2018-07-08T14:24:49.705Z,6.1
2018-07-08T14:26:50.042Z,2.3
2018-07-08T14:28:50.153Z,1.4
2018-07-08T14:30:50.274Z,1.6
2018-07-08T14:32:49.558Z,1.6
2018-07-08T14:34:50.039Z,1.4
2018-07-08T14:36:49.977Z,1.6
2018-07-08T14:38:50.149Z,1.7
2018-07-08T14:40:50.492Z,1.5
2018-07-08T14:42:49.912Z,1.5
2018-07-08T14:44:50.050Z,1.4
2018-07-08T14:46:50.330Z,1.8
2018-07-08T14:48:49.501Z,1.5
2018-07-08T14:50:49.693Z,1.5
2018-07-08T14:52:49.836Z,7.2
2018-07-08T14:54:49.971Z,2.5
2018-07-08T14:56:50.254Z,1.4
2018-07-08T14:58:50.412Z,1.2
2018-07-08T15:00:49.634Z,1.2
2018-07-08T15:02:49.842Z,3.7
2018-07-08T15:04:50.443Z,1.2
2018-07-08T15:06:50.292Z,3.4
2018-07-08T15:08:49.468Z,1.4
2018-07-08T15:10:49.780Z,1.4
2018-07-08T15:12:49.938Z,1.9
2018-07-08T15:14:50.080Z,1.3
2018-07-08T15:16:50.370Z,1.1
2018-07-08T15:18:49.460Z,1.1
2018-07-08T15:20:49.601Z,1.4
2018-07-08T15:22:50.200Z,1.4
2018-07-08T15:24:50.369Z,2.0
2018-07-08T15:26:49.720Z,1.6
2018-07-08T15:28:49.813Z,1.2
2018-07-08T15:30:50.183Z,1.2
2018-07-08T15:32:50.435Z,5.3
2018-07-08T15:34:50.004Z,3.1
2018-07-08T15:36:50.410Z,3.2
2018-07-08T15:38:49.664Z,3.2
2018-07-08T15:40:49.818Z,1.4
2018-07-08T15:42:49.952Z,1.4
2018-07-08T15:44:50.080Z,1.5
2018-07-08T15:46:50.367Z,1.6
2018-07-08T15:48:49.909Z,1.6
2018-07-08T15:50:50.183Z,1.1
2018-07-08T15:52:49.493Z,1.2
2018-07-08T15:54:49.748Z,2.0
2018-07-08T15:56:50.087Z,1.6
2018-07-08T15:58:50.224Z,1.6
2018-07-08T16:00:50.485Z,1.9
2018-07-08T16:02:49.628Z,1.7
2018-07-08T16:04:50.340Z,3.3
2018-07-08T16:06:49.713Z,3.3
2018-07-08T16:08:49.844Z,2.3
2018-07-08T16:10:49.984Z,1.2
2018-07-08T16:12:50.186Z,1.4
2018-07-08T16:14:50.352Z,1.4
2018-07-08T16:16:49.722Z,1.4
2018-07-08T16:18:50.066Z,1.6
2018-07-08T16:20:49.859Z,1.7
2018-07-08T16:22:50.013Z,1.6
2018-07-08T16:24:50.202Z,1.7
2018-07-08T16:26:49.719Z,1.7
2018-07-08T16:28:49.903Z,1.6
2018-07-08T16:30:50.029Z,1.6
2018-07-08T16:32:50.174Z,2.2
2018-07-08T16:34:49.533Z,3.4
2018-07-08T16:36:49.804Z,3.4
2018-07-08T16:38:50.108Z,2.3
2018-07-08T16:40:50.175Z,2.0
2018-07-08T16:42:50.412Z,9.4
2018-07-08T16:44:49.545Z,9.4
2018-07-08T16:46:49.912Z,1.7
2018-07-08T16:48:50.069Z,1.7
2018-07-08T16:50:50.157Z,3.9
2018-07-08T16:52:50.356Z,2.1
2018-07-08T16:54:49.452Z,2.1
2018-07-08T16:56:49.699Z,1.8
2018-07-08T16:58:49.864Z,1.7
2018-07-08T17:00:50.007Z,1.7
2018-07-08T17:02:50.208Z,3.3
2018-07-08T17:04:49.529Z,2.2
2018-07-08T17:06:49.841Z,2.2
2018-07-08T17:08:50.002Z,2.0
2018-07-08T17:10:50.320Z,2.4
2018-07-08T17:12:49.476Z,3.1
2018-07-08T17:14:49.618Z,3.1
2018-07-08T17:16:49.843Z,2.7
2018-07-08T17:18:49.992Z,2.2
2018-07-08T17:20:50.072Z,2.2
2018-07-08T17:22:50.382Z,2.5
2018-07-08T17:24:49.534Z,2.8
2018-07-08T17:26:49.866Z,2.8
2018-07-08T17:28:50.006Z,5.5
2018-07-08T17:30:50.088Z,6.1
2018-07-08T17:32:50.247Z,6.1
2018-07-08T17:34:50.035Z,5.7
2018-07-08T17:36:50.250Z,3.1
2018-07-08T17:38:50.388Z,3.1
2018-07-08T17:40:49.580Z,3.0
2018-07-08T17:42:49.945Z,6.3
2018-07-08T17:44:50.082Z,6.3
2018-07-08T17:46:50.313Z,4.6
2018-07-08T17:48:49.483Z,3.7
2018-07-08T17:50:49.760Z,3.1
2018-07-08T17:52:49.877Z,37.9
2018-07-08T17:54:49.709Z,37.9
2018-07-08T17:56:49.973Z,4.1
2018-07-08T17:58:50.028Z,4.2
2018-07-08T18:00:50.163Z,3.4
2018-07-08T18:02:50.365Z,4.1
2018-07-08T18:04:49.882Z,4.1
2018-07-08T18:06:50.159Z,3.3
2018-07-08T18:08:50.250Z,5.5
2018-07-08T18:10:49.733Z,5.2
2018-07-08T18:12:49.866Z,5.2
2018-07-08T18:14:50.097Z,7.1
2018-07-08T18:16:50.350Z,4.7
2018-07-08T18:18:49.539Z,3.8
2018-07-08T18:20:49.665Z,4.4
2018-07-08T18:22:49.987Z,4.4
2018-07-08T18:24:50.165Z,4.7
2018-07-08T18:26:49.566Z,4.2
2018-07-08T18:28:49.700Z,4.5
2018-07-08T18:30:49.849Z,4.7
2018-07-08T18:32:49.986Z,4.7
2018-07-08T18:34:49.636Z,3.3
2018-07-08T18:36:50.034Z,4.6
2018-07-08T18:38:50.283Z,4.6
2018-07-08T18:40:49.463Z,4.7
2018-07-08T18:42:49.585Z,5.4
2018-07-08T18:44:49.750Z,3.6
2018-07-08T18:46:50.088Z,3.6
2018-07-08T18:48:50.430Z,5.1
2018-07-08T18:50:49.573Z,5.1
2018-07-08T18:52:49.723Z,4.3
2018-07-08T18:54:49.915Z,4.3
2018-07-08T18:56:50.258Z,4.3
2018-07-08T18:58:49.450Z,3.9
2018-07-08T19:00:49.559Z,3.9
2018-07-08T19:02:49.707Z,5.4
2018-07-08T19:04:50.218Z,4.1
2018-07-08T19:06:49.561Z,4.6
2018-07-08T19:08:49.737Z,6.5
2018-07-08T19:10:49.907Z,6.5
2018-07-08T19:12:50.075Z,5.4
2018-07-08T19:14:50.328Z,4.7
2018-07-08T19:16:49.648Z,4.7
2018-07-08T19:18:49.734Z,4.7
2018-07-08T19:20:49.811Z,5.3
2018-07-08T19:22:49.932Z,4.2
2018-07-08T19:24:50.134Z,6.5
2018-07-08T19:26:49.449Z,4.6
2018-07-08T19:28:49.546Z,4.6
2018-07-08T19:30:49.770Z,4.6
2018-07-08T19:32:49.926Z,5.4
2018-07-08T19:34:49.495Z,7.2
2018-07-08T19:36:49.818Z,5.5
2018-07-08T19:38:49.983Z,5.5
2018-07-08T19:40:50.116Z,4.4
2018-07-08T19:42:49.491Z,5.2
2018-07-08T19:44:49.725Z,5.5
2018-07-08T19:46:50.103Z,5.5
2018-07-08T19:48:50.281Z,5.4
2018-07-08T19:50:49.437Z,5.0
2018-07-08T19:52:49.709Z,6.4
2018-07-08T19:54:49.883Z,4.5
2018-07-08T19:56:50.250Z,6.1
2018-07-08T19:58:50.431Z,6.1
2018-07-08T20:00:49.699Z,5.5
2018-07-08T20:02:49.828Z,7.7
2018-07-08T20:04:50.265Z,5.4
2018-07-08T20:06:49.635Z,6.0
2018-07-08T20:08:49.915Z,6.0
2018-07-08T20:10:50.079Z,6.1
2018-07-08T20:12:50.294Z,6.1
2018-07-08T20:14:49.519Z,8.9
2018-07-08T20:16:49.803Z,8.9
2018-07-08T20:18:50.044Z,9.8
2018-07-08T20:20:50.416Z,6.1
2018-07-08T20:22:49.968Z,10.7
2018-07-08T20:24:50.073Z,6.5
2018-07-08T20:26:49.517Z,6.5
2018-07-08T20:28:49.715Z,5.6
2018-07-08T20:30:49.943Z,9.5
2018-07-08T20:32:50.204Z,7.4
2018-07-08T20:34:49.479Z,6.2
2018-07-08T20:36:49.739Z,6.2
2018-07-08T20:38:49.881Z,5.5
2018-07-08T20:40:50.003Z,7.0
2018-07-08T20:42:50.177Z,4.9
2018-07-08T20:44:50.302Z,6.1
2018-07-08T20:46:49.530Z,6.1
2018-07-08T20:48:50.029Z,5.8
2018-07-08T20:50:50.231Z,5.5
2018-07-08T20:52:50.388Z,6.1
2018-07-08T20:54:49.704Z,7.3
2018-07-08T20:56:49.992Z,7.3
2018-07-08T20:58:50.195Z,6.8
2018-07-08T21:00:50.355Z,8.7
2018-07-08T21:02:49.505Z,6.0
2018-07-08T21:04:49.790Z,6.0
2018-07-08T21:06:50.155Z,6.0
2018-07-08T21:08:50.331Z,6.6
2018-07-08T21:10:49.577Z,8.5
2018-07-08T21:12:49.848Z,7.6
2018-07-08T21:14:49.963Z,9.9
2018-07-08T21:16:50.376Z,9.9
2018-07-08T21:18:49.574Z,12.4
2018-07-08T21:20:50.269Z,10.0
2018-07-08T21:22:49.500Z,7.4
2018-07-08T21:24:49.727Z,7.4
2018-07-08T21:26:49.917Z,7.6
2018-07-08T21:28:50.125Z,5.6
2018-07-08T21:30:50.270Z,8.1
2018-07-08T21:32:49.560Z,7.9
2018-07-08T21:34:50.061Z,7.9
2018-07-08T21:36:50.383Z,7.7
2018-07-08T21:38:50.010Z,10.1
2018-07-08T21:40:50.131Z,6.3
2018-07-08T21:42:50.248Z,8.4
2018-07-08T21:44:50.413Z,8.4
2018-07-08T21:46:49.725Z,6.1
2018-07-08T21:48:49.900Z,8.4
2018-07-08T21:50:49.994Z,7.4
2018-07-08T21:52:50.260Z,8.9
2018-07-08T21:54:49.519Z,8.9
2018-07-08T21:56:49.920Z,8.4
2018-07-08T21:58:50.015Z,7.0
2018-07-08T22:00:50.253Z,7.0
2018-07-08T22:02:49.577Z,6.9
2018-07-08T22:04:49.942Z,8.2
2018-07-08T22:06:49.501Z,7.5
2018-07-08T22:08:49.653Z,6.1
2018-07-08T22:10:49.871Z,8.5
2018-07-08T22:12:50.048Z,7.3
2018-07-08T22:14:50.432Z,7.3
2018-07-08T22:16:49.882Z,6.7
2018-07-08T22:18:50.024Z,6.3
2018-07-08T22:20:50.095Z,7.7
2018-07-08T22:22:50.420Z,7.7
2018-07-08T22:24:49.612Z,5.9
2018-07-08T22:26:49.898Z,9.2
2018-07-08T22:28:50.113Z,9.6
2018-07-08T22:30:50.272Z,9.6
2018-07-08T22:32:49.502Z,7.4
2018-07-08T22:34:49.800Z,7.1
2018-07-08T22:36:50.102Z,6.6
2018-07-08T22:38:50.278Z,7.1
2018-07-08T22:40:49.535Z,7.1
2018-07-08T22:42:49.861Z,7.1
2018-07-08T22:44:49.965Z,6.6
2018-07-08T22:46:50.375Z,7.1
2018-07-08T22:48:49.455Z,7.1
2018-07-08T22:50:49.666Z,8.0
2018-07-08T22:52:49.865Z,8.0
2018-07-08T22:54:49.959Z,6.4
2018-07-08T22:56:50.357Z,7.2
2018-07-08T22:58:49.466Z,7.1
2018-07-08T23:00:49.640Z,7.1
2018-07-08T23:02:49.819Z,9.1
2018-07-08T23:04:50.280Z,6.5
2018-07-08T23:06:49.608Z,7.3
2018-07-08T23:08:49.807Z,8.0
2018-07-08T23:10:49.912Z,8.0
2018-07-08T23:12:50.068Z,7.2
2018-07-08T23:14:50.262Z,7.6
2018-07-08T23:16:49.537Z,7.6
2018-07-08T23:18:49.775Z,7.1
2018-07-08T23:20:49.956Z,7.1
2018-07-08T23:22:50.087Z,7.0
2018-07-08T23:24:50.038Z,8.2
2018-07-08T23:26:50.305Z,8.2
2018-07-08T23:28:49.527Z,7.1
2018-07-08T23:30:49.678Z,8.2
2018-07-08T23:32:49.832Z,6.9
2018-07-08T23:34:49.497Z,10.3
2018-07-08T23:36:49.783Z,7.3
2018-07-08T23:38:49.858Z,7.3
2018-07-08T23:40:50.054Z,9.4
2018-07-08T23:42:50.148Z,7.8
2018-07-08T23:44:50.286Z,7.8
2018-07-08T23:46:49.727Z,7.3
2018-07-08T23:48:49.823Z,7.8
2018-07-08T23:50:49.942Z,7.8
2018-07-08T23:52:50.130Z,8.0
2018-07-08T23:54:50.236Z,8.0
2018-07-08T23:56:49.740Z,8.0
2018-07-08T23:58:49.911Z,8.0
